sensor_id;sensor_type;location;lat;lon;timestamp;pressure;altitude;pressure_sealevel;temperature;humidity
51528;BME280;37612;51.768;21.590;2023-03-14T19:31:56;98198.41;;;9.92;81.27
51528;BME280;37612;51.768;21.590;2023-03-14T19:35:58;98199.13;;;9.80;81.34
51528;BME280;37612;51.768;21.590;2023-03-14T19:40:00;98200.62;;;9.73;81.58
51528;BME280;37612;51.768;21.590;2023-03-14T19:44:04;98203.04;;;9.60;81.92
51528;BME280;37612;51.768;21.590;2023-03-14T19:48:09;98210.13;;;9.47;82.08
51528;BME280;37612;51.768;21.590;2023-03-14T19:52:13;98206.75;;;9.41;82.47
51528;BME280;37612;51.768;21.590;2023-03-14T19:56:16;98211.25;;;9.30;82.93
51528;BME280;37612;51.768;21.590;2023-03-14T20:00:20;98209.11;;;9.19;83.09
51528;BME280;37612;51.768;21.590;2023-03-14T20:04:24;98210.11;;;9.14;83.30
51528;BME280;37612;51.768;21.590;2023-03-14T20:08:26;98199.70;;;9.08;83.78
51528;BME280;37612;51.768;21.590;2023-03-14T20:12:32;98203.17;;;9.02;84.12
51528;BME280;37612;51.768;21.590;2023-03-14T20:16:36;98195.42;;;8.96;84.59
51528;BME280;37612;51.768;21.590;2023-03-14T20:20:39;98196.69;;;8.92;84.70
51528;BME280;37612;51.768;21.590;2023-03-14T20:24:42;98205.45;;;8.85;84.95
51528;BME280;37612;51.768;21.590;2023-03-14T20:28:44;98202.90;;;8.78;85.46
51528;BME280;37612;51.768;21.590;2023-03-14T20:32:48;98209.56;;;8.72;85.46
51528;BME280;37612;51.768;21.590;2023-03-14T20:36:51;98213.17;;;8.62;85.70
51528;BME280;37612;51.768;21.590;2023-03-14T20:40:57;98212.05;;;8.58;85.69
51528;BME280;37612;51.768;21.590;2023-03-14T20:45:00;98203.46;;;8.60;86.39
51528;BME280;37612;51.768;21.590;2023-03-14T20:49:02;98202.40;;;8.61;86.22
51528;BME280;37612;51.768;21.590;2023-03-14T20:53:04;98196.31;;;8.62;86.37
51528;BME280;37612;51.768;21.590;2023-03-14T20:57:06;98196.08;;;8.59;86.38
51528;BME280;37612;51.768;21.590;2023-03-14T21:01:09;98198.02;;;8.52;86.71
51528;BME280;37612;51.768;21.590;2023-03-14T21:05:11;98199.77;;;8.46;86.83
51528;BME280;37612;51.768;21.590;2023-03-14T21:09:13;98209.67;;;8.44;86.85
51528;BME280;37612;51.768;21.590;2023-03-14T21:13:16;98207.14;;;8.41;86.97
51528;BME280;37612;51.768;21.590;2023-03-14T21:17:18;98209.89;;;8.35;86.89
51528;BME280;37612;51.768;21.590;2023-03-14T21:21:20;98215.64;;;8.34;87.07
51528;BME280;37612;51.768;21.590;2023-03-14T21:25:22;98212.68;;;8.32;87.48
51528;BME280;37612;51.768;21.590;2023-03-14T21:29:24;98209.66;;;8.25;87.32
51528;BME280;37612;51.768;21.590;2023-03-14T21:33:26;98205.57;;;8.23;87.49
51528;BME280;37612;51.768;21.590;2023-03-14T21:37:28;98204.68;;;8.21;87.40
51528;BME280;37612;51.768;21.590;2023-03-14T21:41:30;98210.18;;;8.19;87.35
51528;BME280;37612;51.768;21.590;2023-03-14T21:45:32;98221.23;;;8.14;87.43
51528;BME280;37612;51.768;21.590;2023-03-14T21:49:36;98223.80;;;8.10;87.23
51528;BME280;37612;51.768;21.590;2023-03-14T21:53:40;98228.41;;;8.05;87.12
51528;BME280;37612;51.768;21.590;2023-03-14T21:57:47;98231.86;;;7.98;87.29
51528;BME280;37612;51.768;21.590;2023-03-14T22:01:49;98233.48;;;7.89;87.36
51528;BME280;37612;51.768;21.590;2023-03-14T22:05:54;98236.20;;;7.85;87.82
51528;BME280;37612;51.768;21.590;2023-03-14T22:09:56;98235.25;;;7.83;87.78
51528;BME280;37612;51.768;21.590;2023-03-14T22:13:57;98241.48;;;7.82;88.31
51528;BME280;37612;51.768;21.590;2023-03-14T22:17:59;98239.86;;;7.84;88.52
51528;BME280;37612;51.768;21.590;2023-03-14T22:22:01;98241.02;;;7.87;88.45
51528;BME280;37612;51.768;21.590;2023-03-14T22:26:03;98242.39;;;7.89;88.33
51528;BME280;37612;51.768;21.590;2023-03-14T22:30:05;98243.77;;;7.90;88.49
51528;BME280;37612;51.768;21.590;2023-03-14T22:34:07;98241.18;;;7.86;88.26
51528;BME280;37612;51.768;21.590;2023-03-14T22:38:09;98242.00;;;7.84;88.14
51528;BME280;37612;51.768;21.590;2023-03-14T22:42:11;98247.73;;;7.85;88.15
51528;BME280;37612;51.768;21.590;2023-03-14T22:46:13;98247.98;;;7.85;88.39
51528;BME280;37612;51.768;21.590;2023-03-14T22:50:15;98249.27;;;7.84;88.29
51528;BME280;37612;51.768;21.590;2023-03-14T22:54:17;98257.06;;;7.88;88.61
51528;BME280;37612;51.768;21.590;2023-03-14T22:58:19;98255.78;;;7.90;88.58
51528;BME280;37612;51.768;21.590;2023-03-14T23:02:21;98262.09;;;7.89;88.67
51528;BME280;37612;51.768;21.590;2023-03-14T23:06:23;98260.06;;;7.92;88.81
51528;BME280;37612;51.768;21.590;2023-03-14T23:10:25;98256.84;;;7.98;88.72
51528;BME280;37612;51.768;21.590;2023-03-14T23:14:44;98252.66;;;8.05;88.72
51528;BME280;37612;51.768;21.590;2023-03-14T23:18:46;98253.03;;;8.11;88.91
51528;BME280;37612;51.768;21.590;2023-03-14T23:22:48;98262.86;;;8.19;88.51
51528;BME280;37612;51.768;21.590;2023-03-14T23:26:50;98260.59;;;8.23;88.82
51528;BME280;37612;51.768;21.590;2023-03-14T23:31:00;98266.11;;;8.25;89.21
51528;BME280;37612;51.768;21.590;2023-03-14T23:35:02;98274.16;;;8.29;89.21
51528;BME280;37612;51.768;21.590;2023-03-14T23:39:06;98275.45;;;8.33;89.08
51528;BME280;37612;51.768;21.590;2023-03-14T23:43:08;98275.25;;;8.34;89.11
51528;BME280;37612;51.768;21.590;2023-03-14T23:47:10;98273.70;;;8.35;89.06
51528;BME280;37612;51.768;21.590;2023-03-14T23:51:13;98266.98;;;8.39;89.24
51528;BME280;37612;51.768;21.590;2023-03-14T23:55:15;98276.92;;;8.41;89.15
51528;BME280;37612;51.768;21.590;2023-03-14T23:59:17;98279.87;;;8.39;89.19
